Flight Track Log - Related Links

Times and Time Zones

All times are in EDT time to prevent confusion due to time zone crossing. See the AWI4056 flight status page for this flight to view local times or setup timezone preferences in your user account.


Time Position Orientation Groundspeed Altitude Reporting Facility
EDT Latitude Longitude Course Direction KTS MPH feet Rate Location/Type
Sun 12:28:33 PM 38.8833 -77.0667 346° North 163 188 2,400  Level Potomac TRACON
Sun 12:29:33 PM 38.9333 -77.1167 322° Northwest 217 250 4,900 2,850 Climbing Potomac TRACON
Sun 12:30:00 PM 39.1162 -77.1783 336° Northwest  Level FlightAware Approximate
Sun 12:30:33 PM 38.9667 -77.1667 311° West 235 270 8,100  Level Potomac TRACON
Sun 12:31:00 PM 39.2084 -77.2250 346° North  Level FlightAware Approximate
Sun 12:31:39 PM 39.0000 -77.2667 293° West 252 290 10,900  Level Potomac TRACON
Sun 12:32:00 PM 39.3009 -77.2708 337° Northwest  Level FlightAware Approximate
Sun 12:33:00 PM 39.3927 -77.3198 346° North  Level FlightAware Approximate
Sun 12:33:58 PM 39.1244 -77.4350 314° West 288 331 15,200  Level Washington Center
Sun 12:34:58 PM 39.2181 -77.4375 359° North 287 330 17,000 1,714 Climbing Washington Center
Sun 12:35:57 PM 39.3119 -77.4425 358° North 312 359 18,600 1,169 Climbing Washington Center
Sun 12:37:32 PM 39.4678 -77.4492 358° North 339 390 20,000 449 Climbing New York Center
Sun 12:39:04 PM 39.6006 -77.4553 358° North 346 398 20,000  Level Cleveland Center
Sun 12:40:06 PM 39.6942 -77.4614 357° North 342 394 20,000  Level Cleveland Center
Sun 12:41:08 PM 39.8072 -77.4669 358° North 338 389 20,000  Level Cleveland Center
Sun 12:42:09 PM 39.9003 -77.4719 358° North 338 389 20,000  Level Cleveland Center
Sun 12:43:11 PM 39.9933 -77.4778 357° North 336 387 20,000  Level Cleveland Center
Sun 12:44:13 PM 40.0856 -77.4842 357° North 335 386 20,000  Level Cleveland Center
Sun 12:45:32 PM 40.2161 -77.4908 358° North 329 379 20,000  Level New York Center
Sun 12:46:32 PM 40.3094 -77.4972 357° North 329 379 20,000  Level New York Center
Sun 12:47:32 PM 40.4008 -77.5033 357° North 329 379 20,000  Level New York Center
Sun 12:48:32 PM 40.4903 -77.5067 358° North 329 379 20,000  Level New York Center
Sun 12:49:32 PM 40.5836 -77.5158 356° North 329 379 20,000  Level New York Center
Sun 12:50:32 PM 40.6731 -77.5189 359° North 329 379 20,000  Level New York Center
Sun 12:51:32 PM 40.7644 -77.5253 357° North 329 379 20,000  Level New York Center
Sun 12:52:32 PM 40.8558 -77.5317 357° North 329 379 20,000  Level New York Center
Sun 12:53:32 PM 40.9492 -77.5381 357° North 329 379 20,000  Level New York Center
Sun 12:54:32 PM 41.0408 -77.5417 358° North 329 379 20,000  Level New York Center
Sun 12:55:32 PM 41.1322 -77.5481 357° North 329 379 20,000  Level New York Center
Sun 12:57:36 PM 41.3108 -77.5578 358° North 330 380 20,000  Level Cleveland Center
Sun 12:58:38 PM 41.4022 -77.5625 358° North 331 381 20,000  Level Cleveland Center
Sun 12:59:40 PM 41.5131 -77.5697 357° North 333 383 20,000  Level Cleveland Center
Sun 01:00:41 PM 41.6050 -77.5758 357° North 333 383 20,000  Level Cleveland Center
Sun 01:01:43 PM 41.6967 -77.5808 358° North 333 383 20,000 -435 Level Cleveland Center
Sun 01:02:45 PM 41.7900 -77.5861 358° North 334 384 19,100 -927 Descending Cleveland Center
Sun 01:03:46 PM 41.8828 -77.5933 357° North 335 386 18,100 -976 Descending Cleveland Center
Sun 01:04:48 PM 41.9806 -77.5997 357° North 334 384 17,100 -968 Descending Cleveland Center
Sun 01:05:50 PM 42.0700 -77.6056 357° North 328 377 16,100 -976 Descending Cleveland Center
Sun 01:06:51 PM 42.1547 -77.6103 358° North 311 358 15,100 -1,048 Descending Cleveland Center
Sun 01:06:53 PM 42.1725 -77.6142 351° North 310 357 15,000 -1,500 Descending Cleveland Center
Sun 01:06:59 PM 42.1769 -77.6125 16° North 308 354 14,900 -985 Descending Cleveland Center
Sun 01:08:00 PM 42.2592 -77.6167 358° North 289 333 13,900 -984 Descending Cleveland Center
Sun 01:09:01 PM 42.3369 -77.6228 357° North 285 328 12,900 -983 Descending Cleveland Center
Sun 01:09:56 PM 42.4100 -77.6272 357° North 287 330 12,000 -1,000 Descending Cleveland Center
Sun 01:10:01 PM 42.4236 -77.6253 North 283 326 11,900 -871 Descending Cleveland Center
Sun 01:10:58 PM 42.4842 -77.6003 17° North 290 334 11,100 -984 Descending Cleveland Center
Sun 01:11:02 PM 42.4961 -77.5928 25° Northeast 280 322 10,900 -984 Descending Cleveland Center
Sun 01:11:59 PM 42.5547 -77.5658 19° North 275 316 10,100 -984 Descending Cleveland Center
Sun 01:12:03 PM 42.5667 -77.5594 22° Northeast 264 304 9,900 -1,161 Descending Cleveland Center
Sun 01:13:01 PM 42.6233 -77.5347 18° North 266 306 8,900 -1,200 Descending Cleveland Center
Sun 01:13:03 PM 42.6353 -77.5258 29° Northeast 259 298 8,700 -1,355 Descending Cleveland Center
Sun 01:14:03 PM 42.7028 -77.4975 17° North 262 302 7,500 -1,180 Descending Cleveland Center
Sun 01:14:04 PM 42.7028 -77.4975 17° North 261 300 7,500 -1,180 Level Cleveland Center
Sun 01:15:04 PM 42.7731 -77.4811 10° North 250 288 6,300 -1,140 Descending Cleveland Center
Sun 01:16:05 PM 42.8419 -77.4906 354° North 244 281 5,200 -968 Descending Cleveland Center
Sun 01:16:06 PM 42.8406 -77.4906 180° South 250 288 5,300 -1,475 Climbing Cleveland Center
Sun 01:17:06 PM 42.9117 -77.5058 351° North 249 287 3,700 -1,452 Descending Cleveland Center
Sun 01:17:08 PM 42.9081 -77.5036 156° South 248 285 3,800 -600 Climbing Cleveland Center
Sun 01:18:06 PM 42.9861 -77.5197 351° North 256 295 3,100 -689 Descending Cleveland Center
Sun 01:18:09 PM 42.9781 -77.5183 173° South 250 288 3,100 -92 Level Cleveland Center
Sun 01:19:11 PM 43.0486 -77.5331 351° North 254 292 3,000 -50 Descending Cleveland Center
Sun 01:20:08 PM 43.1242 -77.5500 351° North 239 275 3,000 -97 Level Cleveland Center
Sun 01:20:13 PM 43.1294 -77.5497 North 252 290 2,900 -600 Descending Cleveland Center
Sun 01:21:08 PM 43.1725 -77.5831 331° Northwest 174 200 2,400 -590 Descending Cleveland Center
Sun 01:21:14 PM 43.1764 -77.5864 328° Northwest 218 251 2,300 -639 Descending Cleveland Center
Sun 01:23:10 PM 43.1425 -77.6592 237° Southwest 128 147 1,100 -629 Descending Cleveland Center
Sun 01:23:18 PM 43.1406 -77.6603 203° Southwest 140 161 1,000 -435 Descending Cleveland Center
Sun 01:24:19 PM 43.1067 -77.6878 211° Southwest 134 154 600 -393 Descending Cleveland Center

Login

Don't have an account? Register now (free) for customized features, flight alerts, and more!